Aurora Springs, Missouri
Current Conditions -  °F | °C
As of 10:35 AM on Sunday 21 Dec 2014 (Local Time) from KAIZ Reporting Station
Overcast Overcast  
Wind Chill:   Ceiling: 3100
Heat Index:   Visibility: 10mi
Dew Point:   Wind: 10mph
Humidity: 76%   Direction: 160°SSE
Pressure: 30.11"   Gusts: NA
Location:  38.333°N, 92.5524°W
Report Text: KAIZ 211635Z AUTO 16009KT 10SM BKN031 OVC038 06/02 A3011 RMK AO1
Loading
Personal Weather Stations






























Interactive Weather Map New forecast layout! Learn more

10-Day Weather Forecast

Advertisements
Track Severe Weather on mobile